sensor_id;sensor_type;location;lat;lon;timestamp;temperature;humidity
50738;DHT22;36703;48.154;17.126;2022-09-12T00:00:40;20.40;55.40
50738;DHT22;36703;48.154;17.126;2022-09-12T00:04:42;20.40;55.40
50738;DHT22;36703;48.154;17.126;2022-09-12T00:08:43;20.40;56.00
50738;DHT22;36703;48.154;17.126;2022-09-12T00:12:45;20.30;55.30
50738;DHT22;36703;48.154;17.126;2022-09-12T00:16:46;20.40;55.50
50738;DHT22;36703;48.154;17.126;2022-09-12T00:20:48;20.30;56.10
50738;DHT22;36703;48.154;17.126;2022-09-12T00:24:49;20.40;56.00
50738;DHT22;36703;48.154;17.126;2022-09-12T00:28:51;20.30;55.50
50738;DHT22;36703;48.154;17.126;2022-09-12T00:32:52;20.20;55.50
50738;DHT22;36703;48.154;17.126;2022-09-12T00:36:54;20.20;55.50
50738;DHT22;36703;48.154;17.126;2022-09-12T00:40:56;20.20;55.60
50738;DHT22;36703;48.154;17.126;2022-09-12T00:44:57;20.20;55.60
50738;DHT22;36703;48.154;17.126;2022-09-12T00:53:13;20.10;55.60
50738;DHT22;36703;48.154;17.126;2022-09-12T00:57:15;20.10;55.60
50738;DHT22;36703;48.154;17.126;2022-09-12T01:01:18;20.10;55.70
50738;DHT22;36703;48.154;17.126;2022-09-12T01:05:21;20.00;55.60
50738;DHT22;36703;48.154;17.126;2022-09-12T01:09:24;20.00;55.50
50738;DHT22;36703;48.154;17.126;2022-09-12T01:13:26;20.00;55.50
50738;DHT22;36703;48.154;17.126;2022-09-12T01:18:18;20.00;55.50
50738;DHT22;36703;48.154;17.126;2022-09-12T01:31:23;19.90;55.50
50738;DHT22;36703;48.154;17.126;2022-09-12T01:35:44;19.90;55.60
50738;DHT22;36703;48.154;17.126;2022-09-12T01:48:34;19.80;55.90
50738;DHT22;36703;48.154;17.126;2022-09-12T01:56:57;19.70;56.00
50738;DHT22;36703;48.154;17.126;2022-09-12T02:01:19;19.70;56.10
50738;DHT22;36703;48.154;17.126;2022-09-12T02:05:36;19.70;56.10
50738;DHT22;36703;48.154;17.126;2022-09-12T02:09:55;19.70;56.10
50738;DHT22;36703;48.154;17.126;2022-09-12T02:14:07;19.70;56.00
50738;DHT22;36703;48.154;17.126;2022-09-12T02:18:13;19.70;55.90
50738;DHT22;36703;48.154;17.126;2022-09-12T02:22:20;19.70;55.90
50738;DHT22;36703;48.154;17.126;2022-09-12T02:26:46;19.70;55.70
50738;DHT22;36703;48.154;17.126;2022-09-12T02:31:00;19.70;55.60
50738;DHT22;36703;48.154;17.126;2022-09-12T02:35:32;19.70;55.50
50738;DHT22;36703;48.154;17.126;2022-09-12T02:39:39;19.70;55.50
50738;DHT22;36703;48.154;17.126;2022-09-12T02:43:40;19.70;55.50
50738;DHT22;36703;48.154;17.126;2022-09-12T02:47:57;19.70;55.30
50738;DHT22;36703;48.154;17.126;2022-09-12T02:52:03;19.70;55.20
50738;DHT22;36703;48.154;17.126;2022-09-12T02:56:07;19.80;55.20
50738;DHT22;36703;48.154;17.126;2022-09-12T03:00:13;19.70;55.10
50738;DHT22;36703;48.154;17.126;2022-09-12T03:09:13;19.90;54.90
50738;DHT22;36703;48.154;17.126;2022-09-12T03:22:54;19.90;54.60
50738;DHT22;36703;48.154;17.126;2022-09-12T03:27:08;19.90;54.60
50738;DHT22;36703;48.154;17.126;2022-09-12T03:31:15;19.90;54.60
50738;DHT22;36703;48.154;17.126;2022-09-12T03:35:20;19.90;54.60
50738;DHT22;36703;48.154;17.126;2022-09-12T03:39:25;19.90;54.60
50738;DHT22;36703;48.154;17.126;2022-09-12T03:43:27;20.00;54.70
50738;DHT22;36703;48.154;17.126;2022-09-12T03:47:29;20.00;54.70
50738;DHT22;36703;48.154;17.126;2022-09-12T03:51:31;19.90;54.60
50738;DHT22;36703;48.154;17.126;2022-09-12T03:55:32;19.90;54.60
50738;DHT22;36703;48.154;17.126;2022-09-12T03:59:33;19.90;54.60
50738;DHT22;36703;48.154;17.126;2022-09-12T04:03:34;19.90;54.60
50738;DHT22;36703;48.154;17.126;2022-09-12T04:07:36;19.90;54.70
50738;DHT22;36703;48.154;17.126;2022-09-12T04:11:37;19.90;54.80
50738;DHT22;36703;48.154;17.126;2022-09-12T04:15:38;19.90;54.90
50738;DHT22;36703;48.154;17.126;2022-09-12T04:19:40;19.80;55.00
50738;DHT22;36703;48.154;17.126;2022-09-12T04:23:41;19.80;55.00
50738;DHT22;36703;48.154;17.126;2022-09-12T04:27:43;19.80;55.10
50738;DHT22;36703;48.154;17.126;2022-09-12T04:31:44;19.80;55.10
50738;DHT22;36703;48.154;17.126;2022-09-12T04:35:45;19.90;55.20
50738;DHT22;36703;48.154;17.126;2022-09-12T04:39:48;19.90;55.30
50738;DHT22;36703;48.154;17.126;2022-09-12T04:43:54;19.90;55.30
50738;DHT22;36703;48.154;17.126;2022-09-12T04:48:02;19.80;55.30
50738;DHT22;36703;48.154;17.126;2022-09-12T04:52:03;19.80;55.40
50738;DHT22;36703;48.154;17.126;2022-09-12T04:56:06;19.70;55.40
50738;DHT22;36703;48.154;17.126;2022-09-12T05:00:09;19.70;55.50
50738;DHT22;36703;48.154;17.126;2022-09-12T05:04:14;19.70;55.70
50738;DHT22;36703;48.154;17.126;2022-09-12T05:08:15;19.70;55.80
50738;DHT22;36703;48.154;17.126;2022-09-12T05:12:17;19.70;55.80
50738;DHT22;36703;48.154;17.126;2022-09-12T05:16:19;19.70;56.00
50738;DHT22;36703;48.154;17.126;2022-09-12T05:20:21;19.70;55.90
50738;DHT22;36703;48.154;17.126;2022-09-12T05:24:23;19.70;56.00
50738;DHT22;36703;48.154;17.126;2022-09-12T05:28:28;19.70;56.00
50738;DHT22;36703;48.154;17.126;2022-09-12T05:32:31;19.70;56.00
50738;DHT22;36703;48.154;17.126;2022-09-12T05:36:33;19.70;56.60
50738;DHT22;36703;48.154;17.126;2022-09-12T05:40:34;19.80;56.00
50738;DHT22;36703;48.154;17.126;2022-09-12T05:44:35;19.70;55.90
50738;DHT22;36703;48.154;17.126;2022-09-12T05:48:37;19.80;55.90
50738;DHT22;36703;48.154;17.126;2022-09-12T05:52:40;19.80;55.90
50738;DHT22;36703;48.154;17.126;2022-09-12T05:56:43;19.80;55.90
50738;DHT22;36703;48.154;17.126;2022-09-12T06:00:46;19.80;55.90
50738;DHT22;36703;48.154;17.126;2022-09-12T06:04:47;19.80;55.90
50738;DHT22;36703;48.154;17.126;2022-09-12T06:08:51;19.80;55.90
50738;DHT22;36703;48.154;17.126;2022-09-12T06:12:53;19.80;55.90
50738;DHT22;36703;48.154;17.126;2022-09-12T06:16:55;19.80;55.90
50738;DHT22;36703;48.154;17.126;2022-09-12T06:20:56;19.80;55.90
50738;DHT22;36703;48.154;17.126;2022-09-12T06:24:57;19.80;55.80
50738;DHT22;36703;48.154;17.126;2022-09-12T06:28:59;19.80;56.00
50738;DHT22;36703;48.154;17.126;2022-09-12T06:33:01;19.90;55.70
50738;DHT22;36703;48.154;17.126;2022-09-12T06:37:02;19.90;55.70
50738;DHT22;36703;48.154;17.126;2022-09-12T06:41:10;19.90;55.60
50738;DHT22;36703;48.154;17.126;2022-09-12T06:45:12;19.90;55.50
50738;DHT22;36703;48.154;17.126;2022-09-12T06:49:16;20.00;55.60
50738;DHT22;36703;48.154;17.126;2022-09-12T06:53:18;20.00;55.50
50738;DHT22;36703;48.154;17.126;2022-09-12T06:57:20;20.00;55.50
50738;DHT22;36703;48.154;17.126;2022-09-12T07:01:22;20.10;55.60
50738;DHT22;36703;48.154;17.126;2022-09-12T07:05:32;20.20;55.50
50738;DHT22;36703;48.154;17.126;2022-09-12T07:09:34;20.30;55.50
50738;DHT22;36703;48.154;17.126;2022-09-12T07:13:35;20.30;55.40
50738;DHT22;36703;48.154;17.126;2022-09-12T07:17:37;20.50;55.30
50738;DHT22;36703;48.154;17.126;2022-09-12T07:21:38;20.70;55.20
50738;DHT22;36703;48.154;17.126;2022-09-12T07:25:40;20.90;55.00
50738;DHT22;36703;48.154;17.126;2022-09-12T07:29:42;21.00;54.70
50738;DHT22;36703;48.154;17.126;2022-09-12T07:33:44;21.10;54.60
50738;DHT22;36703;48.154;17.126;2022-09-12T07:37:45;21.20;54.40
50738;DHT22;36703;48.154;17.126;2022-09-12T07:41:47;21.20;54.20
50738;DHT22;36703;48.154;17.126;2022-09-12T07:45:54;21.20;54.10
50738;DHT22;36703;48.154;17.126;2022-09-12T07:49:55;21.20;54.10
50738;DHT22;36703;48.154;17.126;2022-09-12T07:53:57;21.30;54.00
50738;DHT22;36703;48.154;17.126;2022-09-12T07:57:59;21.40;54.00
50738;DHT22;36703;48.154;17.126;2022-09-12T08:02:00;21.50;54.00
50738;DHT22;36703;48.154;17.126;2022-09-12T08:10:08;21.70;53.60
50738;DHT22;36703;48.154;17.126;2022-09-12T08:14:09;21.80;53.40
50738;DHT22;36703;48.154;17.126;2022-09-12T08:18:11;21.80;53.30
50738;DHT22;36703;48.154;17.126;2022-09-12T08:22:12;21.80;53.20
50738;DHT22;36703;48.154;17.126;2022-09-12T08:26:13;21.80;53.30
50738;DHT22;36703;48.154;17.126;2022-09-12T08:30:15;21.80;53.30
50738;DHT22;36703;48.154;17.126;2022-09-12T08:34:16;21.90;53.10
50738;DHT22;36703;48.154;17.126;2022-09-12T08:38:18;21.90;52.80
50738;DHT22;36703;48.154;17.126;2022-09-12T08:42:50;21.90;52.80
50738;DHT22;36703;48.154;17.126;2022-09-12T08:51:21;22.00;52.60
50738;DHT22;36703;48.154;17.126;2022-09-12T08:55:34;21.90;52.70
50738;DHT22;36703;48.154;17.126;2022-09-12T08:59:44;21.90;52.80
50738;DHT22;36703;48.154;17.126;2022-09-12T09:04:09;21.90;52.70
50738;DHT22;36703;48.154;17.126;2022-09-12T09:08:29;21.90;52.50
50738;DHT22;36703;48.154;17.126;2022-09-12T09:12:51;22.00;52.40
50738;DHT22;36703;48.154;17.126;2022-09-12T09:16:56;21.90;52.40
50738;DHT22;36703;48.154;17.126;2022-09-12T09:21:08;22.00;52.40
50738;DHT22;36703;48.154;17.126;2022-09-12T09:25:20;22.10;52.30
50738;DHT22;36703;48.154;17.126;2022-09-12T09:29:29;22.20;52.00
50738;DHT22;36703;48.154;17.126;2022-09-12T09:33:37;22.30;52.50
50738;DHT22;36703;48.154;17.126;2022-09-12T09:37:53;22.40;51.80
50738;DHT22;36703;48.154;17.126;2022-09-12T09:42:17;22.40;51.50
50738;DHT22;36703;48.154;17.126;2022-09-12T09:46:22;22.50;51.50
50738;DHT22;36703;48.154;17.126;2022-09-12T09:50:24;22.80;51.10
50738;DHT22;36703;48.154;17.126;2022-09-12T09:54:32;22.80;50.70
50738;DHT22;36703;48.154;17.126;2022-09-12T09:58:38;23.00;50.70
50738;DHT22;36703;48.154;17.126;2022-09-12T10:02:40;23.20;50.40
50738;DHT22;36703;48.154;17.126;2022-09-12T10:06:43;23.40;49.90
50738;DHT22;36703;48.154;17.126;2022-09-12T10:11:05;23.40;49.60
50738;DHT22;36703;48.154;17.126;2022-09-12T10:19:32;23.70;48.90
50738;DHT22;36703;48.154;17.126;2022-09-12T10:23:36;23.70;48.70
50738;DHT22;36703;48.154;17.126;2022-09-12T10:27:40;23.70;48.80
50738;DHT22;36703;48.154;17.126;2022-09-12T10:31:46;24.20;48.50
50738;DHT22;36703;48.154;17.126;2022-09-12T10:35:52;24.30;47.80
50738;DHT22;36703;48.154;17.126;2022-09-12T10:39:56;24.00;47.70
50738;DHT22;36703;48.154;17.126;2022-09-12T10:44:15;23.80;48.00
50738;DHT22;36703;48.154;17.126;2022-09-12T10:48:30;24.20;48.00
50738;DHT22;36703;48.154;17.126;2022-09-12T10:52:31;24.30;47.40
50738;DHT22;36703;48.154;17.126;2022-09-12T10:57:14;24.50;47.40
50738;DHT22;36703;48.154;17.126;2022-09-12T11:05:59;26.30;45.00
50738;DHT22;36703;48.154;17.126;2022-09-12T11:15:14;27.20;42.60
50738;DHT22;36703;48.154;17.126;2022-09-12T11:41:14;25.20;43.10
50738;DHT22;36703;48.154;17.126;2022-09-12T11:45:37;25.10;43.40
50738;DHT22;36703;48.154;17.126;2022-09-12T11:49:47;25.00;43.40
50738;DHT22;36703;48.154;17.126;2022-09-12T11:54:32;25.10;43.40
50738;DHT22;36703;48.154;17.126;2022-09-12T11:58:42;25.70;43.00
50738;DHT22;36703;48.154;17.126;2022-09-12T12:07:18;26.90;41.60
50738;DHT22;36703;48.154;17.126;2022-09-12T12:11:35;27.20;41.00
50738;DHT22;36703;48.154;17.126;2022-09-12T12:16:11;27.50;40.40
50738;DHT22;36703;48.154;17.126;2022-09-12T12:20:16;27.80;39.60
50738;DHT22;36703;48.154;17.126;2022-09-12T12:24:22;28.00;39.40
50738;DHT22;36703;48.154;17.126;2022-09-12T12:32:41;27.80;38.90
50738;DHT22;36703;48.154;17.126;2022-09-12T12:36:42;27.50;39.10
50738;DHT22;36703;48.154;17.126;2022-09-12T12:40:44;27.10;39.40
50738;DHT22;36703;48.154;17.126;2022-09-12T12:44:48;26.80;39.80
50738;DHT22;36703;48.154;17.126;2022-09-12T12:49:16;26.60;40.00
50738;DHT22;36703;48.154;17.126;2022-09-12T12:53:25;26.40;40.10
50738;DHT22;36703;48.154;17.126;2022-09-12T12:57:47;26.20;40.40
50738;DHT22;36703;48.154;17.126;2022-09-12T13:01:52;26.00;40.60
50738;DHT22;36703;48.154;17.126;2022-09-12T13:06:01;25.80;40.80
50738;DHT22;36703;48.154;17.126;2022-09-12T13:10:05;25.80;41.10
50738;DHT22;36703;48.154;17.126;2022-09-12T13:14:32;25.70;41.10
50738;DHT22;36703;48.154;17.126;2022-09-12T13:18:45;25.60;41.80
50738;DHT22;36703;48.154;17.126;2022-09-12T13:22:50;25.50;41.40
50738;DHT22;36703;48.154;17.126;2022-09-12T13:26:51;25.40;41.40
50738;DHT22;36703;48.154;17.126;2022-09-12T13:40:09;25.40;41.70
50738;DHT22;36703;48.154;17.126;2022-09-12T13:44:24;25.60;41.30
50738;DHT22;36703;48.154;17.126;2022-09-12T13:48:27;25.70;41.00
50738;DHT22;36703;48.154;17.126;2022-09-12T13:52:33;25.90;40.70
50738;DHT22;36703;48.154;17.126;2022-09-12T13:56:46;25.90;40.40
50738;DHT22;36703;48.154;17.126;2022-09-12T14:01:11;26.00;40.40
50738;DHT22;36703;48.154;17.126;2022-09-12T14:05:18;26.10;40.10
50738;DHT22;36703;48.154;17.126;2022-09-12T14:09:36;26.20;40.00
50738;DHT22;36703;48.154;17.126;2022-09-12T14:13:40;26.10;39.90
50738;DHT22;36703;48.154;17.126;2022-09-12T14:17:48;26.00;40.20
50738;DHT22;36703;48.154;17.126;2022-09-12T14:21:52;25.90;40.60
50738;DHT22;36703;48.154;17.126;2022-09-12T14:25:54;25.90;40.80
50738;DHT22;36703;48.154;17.126;2022-09-12T14:30:05;25.80;40.90
50738;DHT22;36703;48.154;17.126;2022-09-12T14:34:17;25.60;41.00
50738;DHT22;36703;48.154;17.126;2022-09-12T14:38:28;25.50;40.90
50738;DHT22;36703;48.154;17.126;2022-09-12T14:42:32;25.30;40.90
50738;DHT22;36703;48.154;17.126;2022-09-12T14:46:36;25.20;40.90
50738;DHT22;36703;48.154;17.126;2022-09-12T14:50:38;25.30;40.90
50738;DHT22;36703;48.154;17.126;2022-09-12T14:54:39;25.30;40.80
50738;DHT22;36703;48.154;17.126;2022-09-12T14:58:42;25.20;40.70
50738;DHT22;36703;48.154;17.126;2022-09-12T15:02:44;25.20;40.70
50738;DHT22;36703;48.154;17.126;2022-09-12T15:06:45;25.20;40.90
50738;DHT22;36703;48.154;17.126;2022-09-12T15:10:47;25.10;40.90
50738;DHT22;36703;48.154;17.126;2022-09-12T15:14:48;25.10;41.00
50738;DHT22;36703;48.154;17.126;2022-09-12T15:18:50;25.10;41.10
50738;DHT22;36703;48.154;17.126;2022-09-12T15:22:51;25.10;41.10
50738;DHT22;36703;48.154;17.126;2022-09-12T15:26:53;25.10;41.00
50738;DHT22;36703;48.154;17.126;2022-09-12T15:30:55;25.10;40.80
50738;DHT22;36703;48.154;17.126;2022-09-12T15:34:57;25.10;40.50
50738;DHT22;36703;48.154;17.126;2022-09-12T15:38:58;25.00;40.30
50738;DHT22;36703;48.154;17.126;2022-09-12T15:42:59;25.00;40.20
50738;DHT22;36703;48.154;17.126;2022-09-12T15:47:01;24.90;40.10
50738;DHT22;36703;48.154;17.126;2022-09-12T15:51:02;24.90;40.10
50738;DHT22;36703;48.154;17.126;2022-09-12T15:55:05;24.90;40.10
50738;DHT22;36703;48.154;17.126;2022-09-12T15:59:12;24.90;40.00
50738;DHT22;36703;48.154;17.126;2022-09-12T16:03:25;24.90;40.00
50738;DHT22;36703;48.154;17.126;2022-09-12T16:07:28;24.80;39.70
50738;DHT22;36703;48.154;17.126;2022-09-12T16:11:29;24.80;39.70
50738;DHT22;36703;48.154;17.126;2022-09-12T16:15:31;24.80;39.70
50738;DHT22;36703;48.154;17.126;2022-09-12T16:19:32;24.80;39.70
50738;DHT22;36703;48.154;17.126;2022-09-12T16:23:33;24.80;39.70
50738;DHT22;36703;48.154;17.126;2022-09-12T16:27:35;24.70;39.80
50738;DHT22;36703;48.154;17.126;2022-09-12T16:31:37;24.80;40.30
50738;DHT22;36703;48.154;17.126;2022-09-12T16:35:39;24.80;40.90
50738;DHT22;36703;48.154;17.126;2022-09-12T16:39:41;24.90;41.10
50738;DHT22;36703;48.154;17.126;2022-09-12T16:43:42;24.90;41.00
50738;DHT22;36703;48.154;17.126;2022-09-12T16:47:45;24.80;41.20
50738;DHT22;36703;48.154;17.126;2022-09-12T16:51:47;24.80;41.30
50738;DHT22;36703;48.154;17.126;2022-09-12T16:55:49;24.80;41.60
50738;DHT22;36703;48.154;17.126;2022-09-12T16:59:50;24.90;41.90
50738;DHT22;36703;48.154;17.126;2022-09-12T17:03:56;24.80;42.00
50738;DHT22;36703;48.154;17.126;2022-09-12T17:07:58;24.80;42.20
50738;DHT22;36703;48.154;17.126;2022-09-12T17:11:59;24.80;42.40
50738;DHT22;36703;48.154;17.126;2022-09-12T17:16:05;24.80;42.60
50738;DHT22;36703;48.154;17.126;2022-09-12T17:20:14;24.80;42.80
50738;DHT22;36703;48.154;17.126;2022-09-12T17:24:16;24.80;42.90
50738;DHT22;36703;48.154;17.126;2022-09-12T17:28:18;24.80;43.20
50738;DHT22;36703;48.154;17.126;2022-09-12T17:32:20;24.70;43.30
50738;DHT22;36703;48.154;17.126;2022-09-12T17:36:21;24.60;43.40
50738;DHT22;36703;48.154;17.126;2022-09-12T17:40:22;24.60;43.60
50738;DHT22;36703;48.154;17.126;2022-09-12T17:44:24;24.60;43.70
50738;DHT22;36703;48.154;17.126;2022-09-12T17:48:25;24.60;43.60
50738;DHT22;36703;48.154;17.126;2022-09-12T17:52:27;24.70;43.60
50738;DHT22;36703;48.154;17.126;2022-09-12T17:56:29;24.50;43.50
50738;DHT22;36703;48.154;17.126;2022-09-12T18:00:31;24.50;43.50
50738;DHT22;36703;48.154;17.126;2022-09-12T18:04:52;24.50;43.50
50738;DHT22;36703;48.154;17.126;2022-09-12T18:08:54;24.50;44.10
50738;DHT22;36703;48.154;17.126;2022-09-12T18:12:58;24.40;43.40
50738;DHT22;36703;48.154;17.126;2022-09-12T18:17:00;24.40;43.30
50738;DHT22;36703;48.154;17.126;2022-09-12T18:21:06;24.40;43.10
50738;DHT22;36703;48.154;17.126;2022-09-12T18:25:08;24.40;42.90
50738;DHT22;36703;48.154;17.126;2022-09-12T18:29:10;24.30;42.80
50738;DHT22;36703;48.154;17.126;2022-09-12T18:33:12;24.30;42.90
50738;DHT22;36703;48.154;17.126;2022-09-12T18:37:13;24.30;42.80
50738;DHT22;36703;48.154;17.126;2022-09-12T18:41:17;24.30;42.90
50738;DHT22;36703;48.154;17.126;2022-09-12T18:45:20;24.30;42.70
50738;DHT22;36703;48.154;17.126;2022-09-12T18:49:22;24.30;42.50
50738;DHT22;36703;48.154;17.126;2022-09-12T18:53:23;24.20;42.40
50738;DHT22;36703;48.154;17.126;2022-09-12T18:57:25;24.00;42.10
50738;DHT22;36703;48.154;17.126;2022-09-12T19:01:29;23.80;42.10
50738;DHT22;36703;48.154;17.126;2022-09-12T19:05:31;23.80;42.10
50738;DHT22;36703;48.154;17.126;2022-09-12T19:09:33;23.80;42.20
50738;DHT22;36703;48.154;17.126;2022-09-12T19:13:36;23.80;41.90
50738;DHT22;36703;48.154;17.126;2022-09-12T19:17:39;23.80;41.70
50738;DHT22;36703;48.154;17.126;2022-09-12T19:21:41;23.70;41.30
50738;DHT22;36703;48.154;17.126;2022-09-12T19:25:42;23.70;41.10
50738;DHT22;36703;48.154;17.126;2022-09-12T19:29:45;23.60;41.00
50738;DHT22;36703;48.154;17.126;2022-09-12T19:33:47;23.50;40.90
50738;DHT22;36703;48.154;17.126;2022-09-12T19:37:48;23.50;40.90
50738;DHT22;36703;48.154;17.126;2022-09-12T19:41:49;23.50;40.90
50738;DHT22;36703;48.154;17.126;2022-09-12T19:45:51;23.40;40.60
50738;DHT22;36703;48.154;17.126;2022-09-12T19:49:52;23.40;40.60
50738;DHT22;36703;48.154;17.126;2022-09-12T19:53:54;23.40;40.70
50738;DHT22;36703;48.154;17.126;2022-09-12T19:57:55;23.30;40.60
50738;DHT22;36703;48.154;17.126;2022-09-12T20:01:56;23.20;40.90
50738;DHT22;36703;48.154;17.126;2022-09-12T20:06:11;23.10;41.00
50738;DHT22;36703;48.154;17.126;2022-09-12T20:10:14;23.10;41.20
50738;DHT22;36703;48.154;17.126;2022-09-12T20:14:15;23.20;41.20
50738;DHT22;36703;48.154;17.126;2022-09-12T20:18:17;23.10;41.10
50738;DHT22;36703;48.154;17.126;2022-09-12T20:22:18;23.10;41.20
50738;DHT22;36703;48.154;17.126;2022-09-12T20:26:19;23.10;41.30
50738;DHT22;36703;48.154;17.126;2022-09-12T20:30:23;23.10;41.30
50738;DHT22;36703;48.154;17.126;2022-09-12T20:34:24;23.00;42.10
50738;DHT22;36703;48.154;17.126;2022-09-12T20:38:25;22.90;41.60
50738;DHT22;36703;48.154;17.126;2022-09-12T20:42:28;22.90;41.80
50738;DHT22;36703;48.154;17.126;2022-09-12T20:46:29;22.90;41.90
50738;DHT22;36703;48.154;17.126;2022-09-12T20:50:30;22.80;41.90
50738;DHT22;36703;48.154;17.126;2022-09-12T20:54:31;22.80;42.00
50738;DHT22;36703;48.154;17.126;2022-09-12T20:58:33;22.70;42.10
50738;DHT22;36703;48.154;17.126;2022-09-12T21:02:34;22.70;42.20
50738;DHT22;36703;48.154;17.126;2022-09-12T21:06:36;22.60;42.30
50738;DHT22;36703;48.154;17.126;2022-09-12T21:10:40;22.60;42.40
50738;DHT22;36703;48.154;17.126;2022-09-12T21:14:42;22.50;42.50
50738;DHT22;36703;48.154;17.126;2022-09-12T21:18:43;22.50;42.80
50738;DHT22;36703;48.154;17.126;2022-09-12T21:22:44;22.40;42.90
50738;DHT22;36703;48.154;17.126;2022-09-12T21:26:45;22.40;43.00
50738;DHT22;36703;48.154;17.126;2022-09-12T21:30:48;22.40;43.20
50738;DHT22;36703;48.154;17.126;2022-09-12T21:34:50;22.30;43.10
50738;DHT22;36703;48.154;17.126;2022-09-12T21:38:51;22.30;43.20
50738;DHT22;36703;48.154;17.126;2022-09-12T21:42:52;22.20;43.30
50738;DHT22;36703;48.154;17.126;2022-09-12T21:46:54;22.20;43.60
50738;DHT22;36703;48.154;17.126;2022-09-12T21:50:55;22.10;43.60
50738;DHT22;36703;48.154;17.126;2022-09-12T21:54:56;22.10;43.80
50738;DHT22;36703;48.154;17.126;2022-09-12T21:58:57;22.10;44.00
50738;DHT22;36703;48.154;17.126;2022-09-12T22:02:59;21.90;44.10
50738;DHT22;36703;48.154;17.126;2022-09-12T22:07:00;22.00;44.30
50738;DHT22;36703;48.154;17.126;2022-09-12T22:11:04;21.90;44.30
50738;DHT22;36703;48.154;17.126;2022-09-12T22:15:09;21.90;44.60
50738;DHT22;36703;48.154;17.126;2022-09-12T22:19:10;21.90;44.70
50738;DHT22;36703;48.154;17.126;2022-09-12T22:23:12;21.80;44.70
50738;DHT22;36703;48.154;17.126;2022-09-12T22:27:33;21.80;44.90
50738;DHT22;36703;48.154;17.126;2022-09-12T22:31:34;21.70;45.00
50738;DHT22;36703;48.154;17.126;2022-09-12T22:35:36;21.60;45.00
50738;DHT22;36703;48.154;17.126;2022-09-12T22:39:38;21.50;45.20
50738;DHT22;36703;48.154;17.126;2022-09-12T22:43:40;21.50;45.50
50738;DHT22;36703;48.154;17.126;2022-09-12T22:47:41;21.10;45.40
50738;DHT22;36703;48.154;17.126;2022-09-12T22:51:43;21.40;45.70
50738;DHT22;36703;48.154;17.126;2022-09-12T22:55:44;21.50;45.90
50738;DHT22;36703;48.154;17.126;2022-09-12T22:59:45;21.50;46.10
50738;DHT22;36703;48.154;17.126;2022-09-12T23:03:47;21.50;46.20
50738;DHT22;36703;48.154;17.126;2022-09-12T23:07:49;21.50;46.40
50738;DHT22;36703;48.154;17.126;2022-09-12T23:11:50;21.40;46.30
50738;DHT22;36703;48.154;17.126;2022-09-12T23:16:00;21.40;46.10
50738;DHT22;36703;48.154;17.126;2022-09-12T23:20:03;21.20;45.70
50738;DHT22;36703;48.154;17.126;2022-09-12T23:24:04;21.20;45.80
50738;DHT22;36703;48.154;17.126;2022-09-12T23:28:06;21.20;45.90
50738;DHT22;36703;48.154;17.126;2022-09-12T23:32:07;21.10;45.90
50738;DHT22;36703;48.154;17.126;2022-09-12T23:36:09;21.20;45.60
50738;DHT22;36703;48.154;17.126;2022-09-12T23:40:14;21.20;45.50
50738;DHT22;36703;48.154;17.126;2022-09-12T23:44:15;21.20;45.50
50738;DHT22;36703;48.154;17.126;2022-09-12T23:48:17;21.30;45.60
50738;DHT22;36703;48.154;17.126;2022-09-12T23:52:18;21.20;45.70
50738;DHT22;36703;48.154;17.126;2022-09-12T23:56:19;21.20;45.90
